createdAt,value
2023-11-04T00:00:22.308Z,290.79
2023-11-04T00:01:24.865Z,286.98
2023-11-04T00:02:22.249Z,278.26
2023-11-04T00:03:22.389Z,273.18
2023-11-04T00:04:22.356Z,267.85
2023-11-04T00:05:22.277Z,261.05
2023-11-04T00:06:22.369Z,250.34
2023-11-04T00:07:22.207Z,239.42
2023-11-04T00:08:22.217Z,232.32
2023-11-04T00:09:28.530Z,225.49
2023-11-04T00:10:22.210Z,217.88
2023-11-04T00:11:22.162Z,211.99
2023-11-04T00:12:22.213Z,206.15
2023-11-04T00:13:22.166Z,204.23
2023-11-04T00:14:22.138Z,198.93
2023-11-04T00:15:24.963Z,195.85
2023-11-04T00:16:22.128Z,194.23
2023-11-04T00:17:22.133Z,196.09
2023-11-04T00:18:22.185Z,192.42
2023-11-04T00:19:22.187Z,191.19
2023-11-04T00:20:22.111Z,193.89
2023-11-04T00:21:22.098Z,191.75
2023-11-04T00:22:22.101Z,192.87
2023-11-04T00:23:22.056Z,191.86
2023-11-04T00:24:22.058Z,191.30
2023-11-04T00:25:22.038Z,189.76
2023-11-04T00:26:22.051Z,191.75
2023-11-04T00:27:22.350Z,190.75
2023-11-04T00:28:22.017Z,191.30
2023-11-04T00:29:21.985Z,190.31
2023-11-04T00:30:22.019Z,189.98
2023-11-04T00:31:21.970Z,188.89
2023-11-04T00:32:21.986Z,186.96
2023-11-04T00:33:22.046Z,185.48
2023-11-04T00:34:22.050Z,188.46
2023-11-04T00:35:21.928Z,188.67
2023-11-04T00:36:21.943Z,186.52
2023-11-04T00:37:23.162Z,191.19
2023-11-04T00:38:21.906Z,193.78
2023-11-04T00:39:21.912Z,193.89
2023-11-04T00:40:21.865Z,196.79
2023-11-04T00:41:21.865Z,197.14
2023-11-04T00:42:21.900Z,198.93
2023-11-04T00:43:21.842Z,195.62
2023-11-04T00:44:21.874Z,196.67
2023-11-04T00:45:21.826Z,201.24
2023-11-04T00:46:21.835Z,199.89
2023-11-04T00:47:21.830Z,206.41
2023-11-04T00:48:21.841Z,205.89
2023-11-04T00:49:21.835Z,213.78
2023-11-04T00:50:22.104Z,218.89
2023-11-04T00:51:21.763Z,221.99
2023-11-04T00:52:21.754Z,220.80
2023-11-04T00:53:21.738Z,225.95
2023-11-04T00:54:21.768Z,224.56
2023-11-04T00:55:21.753Z,223.04
2023-11-04T00:56:21.715Z,224.26
2023-11-04T00:57:21.718Z,227.82
2023-11-04T00:58:21.669Z,229.41
2023-11-04T00:59:21.661Z,233.15
2023-11-04T01:00:21.702Z,232.98
2023-11-04T01:01:21.677Z,238.55
2023-11-04T01:02:21.661Z,240.99
2023-11-04T01:03:21.679Z,241.17
2023-11-04T01:04:21.697Z,247.51
2023-11-04T01:05:21.743Z,243.31
2023-11-04T01:06:21.636Z,246.22
2023-11-04T01:07:21.641Z,242.77
2023-11-04T01:08:21.576Z,244.76
2023-11-04T01:09:21.582Z,246.96
2023-11-04T01:10:21.559Z,251.68
2023-11-04T01:11:21.566Z,256.98
2023-11-04T01:12:21.576Z,265.69
2023-11-04T01:13:21.575Z,278.49
2023-11-04T01:14:21.515Z,284.26
2023-11-04T01:15:21.538Z,291.56
2023-11-04T01:16:21.495Z,291.56
2023-11-04T01:17:21.525Z,293.90
2023-11-04T01:18:21.546Z,290.02
2023-11-04T01:19:21.562Z,290.53
2023-11-04T01:20:21.477Z,286.73
2023-11-04T01:21:21.481Z,285.00
2023-11-04T01:22:21.456Z,284.02
2023-11-04T01:23:21.454Z,278.49
2023-11-04T01:24:21.454Z,272.95
2023-11-04T01:25:21.422Z,267.85
2023-11-04T01:26:21.380Z,258.80
2023-11-04T01:27:21.410Z,253.03
2023-11-04T01:28:21.366Z,246.40
2023-11-04T01:29:21.370Z,240.99
2023-11-04T01:30:21.418Z,235.15
2023-11-04T01:31:21.355Z,229.89
2023-11-04T01:32:21.357Z,225.64
2023-11-04T01:33:21.484Z,220.21
2023-11-04T01:34:21.417Z,217.16
2023-11-04T01:35:21.320Z,214.19
2023-11-04T01:36:21.345Z,209.96
2023-11-04T01:37:21.298Z,205.63
2023-11-04T01:38:21.275Z,202.85
2023-11-04T01:39:21.302Z,199.29
2023-11-04T01:40:21.262Z,195.15
2023-11-04T01:41:21.232Z,190.53
2023-11-04T01:42:21.360Z,186.22
2023-11-04T01:43:21.223Z,183.86
2023-11-04T01:44:21.201Z,178.95
2023-11-04T01:45:21.232Z,174.48
2023-11-04T01:46:21.188Z,170.05
2023-11-04T01:47:21.176Z,166.50
2023-11-04T01:48:21.268Z,165.35
2023-11-04T01:49:21.239Z,163.41
2023-11-04T01:50:21.145Z,162.31
2023-11-04T01:51:21.161Z,159.37
2023-11-04T01:52:21.134Z,156.69
2023-11-04T01:53:21.164Z,155.24
2023-11-04T01:54:21.187Z,152.27
2023-11-04T01:55:21.181Z,149.15
2023-11-04T01:56:21.081Z,144.27
2023-11-04T01:57:21.134Z,141.23
2023-11-04T01:58:21.078Z,138.20
2023-11-04T01:59:21.091Z,137.07
2023-11-04T02:00:21.081Z,135.63
2023-11-04T02:01:21.030Z,135.63
2023-11-04T02:02:21.017Z,134.43
2023-11-04T02:03:21.061Z,134.21
2023-11-04T02:04:21.144Z,132.41
2023-11-04T02:05:20.998Z,131.89
2023-11-04T02:06:21.041Z,130.86
2023-11-04T02:07:20.974Z,130.76
2023-11-04T02:08:20.959Z,129.95
2023-11-04T02:09:20.971Z,128.65
2023-11-04T02:10:20.978Z,126.70
2023-11-04T02:11:20.931Z,126.42
2023-11-04T02:12:20.954Z,124.17
2023-11-04T02:13:20.906Z,123.98
2023-11-04T02:14:20.926Z,121.82
2023-11-04T02:15:20.942Z,120.68
2023-11-04T02:16:20.902Z,120.24
2023-11-04T02:17:20.882Z,119.22
2023-11-04T02:18:20.915Z,119.56
2023-11-04T02:19:20.944Z,119.64
2023-11-04T02:20:20.863Z,120.50
2023-11-04T02:21:20.869Z,120.76
2023-11-04T02:22:22.225Z,122.35
2023-11-04T02:23:20.876Z,123.34
2023-11-04T02:24:20.821Z,124.07
2023-11-04T02:25:20.797Z,124.07
2023-11-04T02:26:20.788Z,124.91
2023-11-04T02:27:20.781Z,126.03
2023-11-04T02:28:20.767Z,125.66
2023-11-04T02:29:20.746Z,125.94
2023-11-04T02:30:20.751Z,126.42
2023-11-04T02:31:20.730Z,127.09
2023-11-04T02:32:20.767Z,127.38
2023-11-04T02:33:20.760Z,128.85
2023-11-04T02:34:20.744Z,128.35
2023-11-04T02:35:20.693Z,128.75
2023-11-04T02:36:20.758Z,129.44
2023-11-04T02:37:20.712Z,130.05
2023-11-04T02:38:20.668Z,130.35
2023-11-04T02:39:20.760Z,132.20
2023-11-04T02:40:20.642Z,132.31
2023-11-04T02:41:20.695Z,133.25
2023-11-04T02:42:20.652Z,133.25
2023-11-04T02:43:20.626Z,133.36
2023-11-04T02:44:20.603Z,132.41
2023-11-04T02:45:20.609Z,132.31
2023-11-04T02:46:20.587Z,132.41
2023-11-04T02:47:20.583Z,131.48
2023-11-04T02:48:20.657Z,131.99
2023-11-04T02:49:20.576Z,132.94
2023-11-04T02:50:20.547Z,134.43
2023-11-04T02:51:20.605Z,134.75
2023-11-04T02:52:20.542Z,134.32
2023-11-04T02:53:20.510Z,134.00
2023-11-04T02:54:20.622Z,132.73
2023-11-04T02:55:20.487Z,131.17
2023-11-04T02:56:20.472Z,130.86
2023-11-04T02:57:20.495Z,129.84
2023-11-04T02:58:20.469Z,129.74
2023-11-04T02:59:20.462Z,128.06
2023-11-04T03:00:20.500Z,126.42
2023-11-04T03:01:20.646Z,125.85
2023-11-04T03:02:20.431Z,124.54
2023-11-04T03:03:20.531Z,123.16
2023-11-04T03:04:20.544Z,122.08
2023-11-04T03:05:27.822Z,121.46
2023-11-04T03:06:20.399Z,119.73
2023-11-04T03:07:20.387Z,119.05
2023-11-04T03:08:20.372Z,118.46
2023-11-04T03:09:20.441Z,118.37
2023-11-04T03:10:20.327Z,116.97
2023-11-04T03:11:20.321Z,117.05
2023-11-04T03:12:20.328Z,116.56
2023-11-04T03:13:20.349Z,116.64
2023-11-04T03:14:20.284Z,116.08
2023-11-04T03:15:20.293Z,116.24
2023-11-04T03:16:20.296Z,117.46
2023-11-04T03:17:20.290Z,116.89
2023-11-04T03:18:20.444Z,116.97
2023-11-04T03:19:20.304Z,117.87
2023-11-04T03:20:20.229Z,117.54
2023-11-04T03:21:20.232Z,118.71
2023-11-04T03:22:20.203Z,119.56
2023-11-04T03:23:20.207Z,120.07
2023-11-04T03:24:20.215Z,120.07
2023-11-04T03:25:20.220Z,119.99
2023-11-04T03:26:20.222Z,120.16
2023-11-04T03:27:20.173Z,119.90
2023-11-04T03:28:20.156Z,120.85
2023-11-04T03:29:20.123Z,121.29
2023-11-04T03:30:20.198Z,120.76
2023-11-04T03:31:20.109Z,121.55
2023-11-04T03:32:20.118Z,120.76
2023-11-04T03:33:20.159Z,121.11
2023-11-04T03:34:20.194Z,120.50
2023-11-04T03:35:20.079Z,120.94
2023-11-04T03:36:20.088Z,120.33
2023-11-04T03:37:20.051Z,120.16
2023-11-04T03:38:20.052Z,120.33
2023-11-04T03:39:20.060Z,119.30
2023-11-04T03:40:20.038Z,118.88
2023-11-04T03:41:20.046Z,119.22
2023-11-04T03:42:20.073Z,119.39
2023-11-04T03:43:19.999Z,119.90
2023-11-04T03:44:19.974Z,119.56
2023-11-04T03:45:20.000Z,121.20
2023-11-04T03:46:19.955Z,121.20
2023-11-04T03:47:20.091Z,120.85
2023-11-04T03:48:20.111Z,121.29
2023-11-04T03:49:20.065Z,121.29
2023-11-04T03:50:19.922Z,120.85
2023-11-04T03:51:19.969Z,120.59
2023-11-04T03:52:19.915Z,120.42
2023-11-04T03:53:19.881Z,121.38
2023-11-04T03:54:19.951Z,121.64
2023-11-04T03:55:19.860Z,120.16
2023-11-04T03:56:19.875Z,121.91
2023-11-04T03:57:19.883Z,121.55
2023-11-04T03:58:19.901Z,122.00
2023-11-04T03:59:19.823Z,122.00
2023-11-04T04:00:19.846Z,121.46
2023-11-04T04:01:19.803Z,121.29
2023-11-04T04:02:19.813Z,121.73
2023-11-04T04:03:19.885Z,122.62
2023-11-04T04:04:19.931Z,123.25
2023-11-04T04:05:19.784Z,123.16
2023-11-04T04:06:19.771Z,122.71
2023-11-04T04:07:19.766Z,122.62
2023-11-04T04:08:19.762Z,122.71
2023-11-04T04:09:19.725Z,122.44
2023-11-04T04:10:19.703Z,122.08
2023-11-04T04:11:19.742Z,121.64
2023-11-04T04:12:19.686Z,121.29
2023-11-04T04:13:19.698Z,122.26
2023-11-04T04:14:19.654Z,120.76
2023-11-04T04:15:19.654Z,121.29
2023-11-04T04:16:19.645Z,120.50
2023-11-04T04:17:19.620Z,120.76
2023-11-04T04:18:19.680Z,120.94
2023-11-04T04:19:19.702Z,122.26
2023-11-04T04:20:19.603Z,121.11
2023-11-04T04:21:19.576Z,122.00
2023-11-04T04:22:19.569Z,122.53
2023-11-04T04:23:19.580Z,122.17
2023-11-04T04:24:19.569Z,123.25
2023-11-04T04:25:19.599Z,123.34
2023-11-04T04:26:19.570Z,123.43
2023-11-04T04:27:19.521Z,123.98
2023-11-04T04:28:19.524Z,124.63
2023-11-04T04:29:19.502Z,125.19
2023-11-04T04:30:19.487Z,125.85
2023-11-04T04:31:19.501Z,126.42
2023-11-04T04:32:19.467Z,126.03
2023-11-04T04:33:19.566Z,126.61
2023-11-04T04:34:19.538Z,126.80
2023-11-04T04:35:19.438Z,126.42
2023-11-04T04:36:19.466Z,125.85
2023-11-04T04:37:19.452Z,125.09
2023-11-04T04:38:19.415Z,124.72
2023-11-04T04:39:19.401Z,124.26
2023-11-04T04:40:19.407Z,123.53
2023-11-04T04:41:19.594Z,123.80
2023-11-04T04:42:19.371Z,123.25
2023-11-04T04:43:19.390Z,123.25
2023-11-04T04:44:19.373Z,123.80
2023-11-04T04:45:19.346Z,124.54
2023-11-04T04:46:19.332Z,125.66
2023-11-04T04:47:19.322Z,127.76
2023-11-04T04:48:19.297Z,129.14
2023-11-04T04:49:19.397Z,129.14
2023-11-04T04:50:19.287Z,129.84
2023-11-04T04:51:19.267Z,130.96
2023-11-04T04:52:19.272Z,131.99
2023-11-04T04:53:19.256Z,133.04
2023-11-04T04:54:19.264Z,135.41
2023-11-04T04:55:19.279Z,135.30
2023-11-04T04:56:19.216Z,136.73
2023-11-04T04:57:19.226Z,137.97
2023-11-04T04:58:19.214Z,139.24
2023-11-04T04:59:19.194Z,140.87
2023-11-04T05:00:19.202Z,141.35
2023-11-04T05:01:19.205Z,142.55
2023-11-04T05:02:19.131Z,145.27
2023-11-04T05:03:19.279Z,144.15
2023-11-04T05:04:19.177Z,145.27
2023-11-04T05:05:19.290Z,145.65
2023-11-04T05:06:19.095Z,145.15
2023-11-04T05:07:19.144Z,146.03
2023-11-04T05:08:19.110Z,145.90
2023-11-04T05:09:19.071Z,145.78
2023-11-04T05:10:19.070Z,144.65
2023-11-04T05:11:19.061Z,143.28
2023-11-04T05:12:19.105Z,140.52
2023-11-04T05:13:19.048Z,140.17
2023-11-04T05:14:19.036Z,139.58
2023-11-04T05:15:19.053Z,140.40
2023-11-04T05:16:19.066Z,140.17
2023-11-04T05:17:19.058Z,139.58
2023-11-04T05:18:19.064Z,139.93
2023-11-04T05:19:19.080Z,140.28
2023-11-04T05:20:18.973Z,139.70
2023-11-04T05:21:18.988Z,140.05
2023-11-04T05:22:18.985Z,139.58
2023-11-04T05:23:18.968Z,140.99
2023-11-04T05:24:19.012Z,140.99
2023-11-04T05:25:18.932Z,141.95
2023-11-04T05:26:18.975Z,143.53
2023-11-04T05:27:18.959Z,144.77
2023-11-04T05:28:18.985Z,144.65
2023-11-04T05:29:18.950Z,146.03
2023-11-04T05:30:18.965Z,146.54
2023-11-04T05:31:18.883Z,146.29
2023-11-04T05:32:19.079Z,147.58
2023-11-04T05:33:19.134Z,148.89
2023-11-04T05:34:18.943Z,148.23
2023-11-04T05:35:18.958Z,147.45
2023-11-04T05:36:18.872Z,145.90
2023-11-04T05:37:18.869Z,143.41
2023-11-04T05:38:18.960Z,141.83
2023-11-04T05:39:18.888Z,140.40
2023-11-04T05:40:18.957Z,139.00
2023-11-04T05:41:18.773Z,137.63
2023-11-04T05:42:18.778Z,136.07
2023-11-04T05:43:18.743Z,135.41
2023-11-04T05:44:18.710Z,134.97
2023-11-04T05:45:18.717Z,135.74
2023-11-04T05:46:18.766Z,135.96
2023-11-04T05:47:18.690Z,136.29
2023-11-04T05:48:18.804Z,136.40
2023-11-04T05:49:18.746Z,137.41
2023-11-04T05:50:18.667Z,138.77
2023-11-04T05:51:18.652Z,138.77
2023-11-04T05:52:18.652Z,141.11
2023-11-04T05:53:18.616Z,141.47
2023-11-04T05:54:18.639Z,142.07
2023-11-04T05:55:18.619Z,143.28
2023-11-04T05:56:18.590Z,144.52
2023-11-04T05:57:18.610Z,146.42
2023-11-04T05:58:18.568Z,147.58
2023-11-04T05:59:18.566Z,148.10
2023-11-04T06:00:18.572Z,149.15
2023-11-04T06:01:18.527Z,151.04
2023-11-04T06:02:18.546Z,152.55
2023-11-04T06:03:18.529Z,153.67
2023-11-04T06:04:18.601Z,153.53
2023-11-04T06:05:18.542Z,154.38
2023-11-04T06:06:18.512Z,155.24
2023-11-04T06:07:18.568Z,156.98
2023-11-04T06:08:18.498Z,158.62
2023-11-04T06:09:18.439Z,157.87
2023-11-04T06:10:18.438Z,159.37
2023-11-04T06:11:21.053Z,162.31
2023-11-04T06:12:18.436Z,165.68
2023-11-04T06:13:18.409Z,169.88
2023-11-04T06:14:18.447Z,176.32
2023-11-04T06:15:18.433Z,180.88
2023-11-04T06:16:18.380Z,185.80
2023-11-04T06:17:18.377Z,172.15
2023-11-04T06:18:18.495Z,161.68
2023-11-04T06:19:18.465Z,161.21
2023-11-04T06:20:18.327Z,163.10
2023-11-04T06:21:18.344Z,162.78
2023-11-04T06:22:18.333Z,159.37
2023-11-04T06:23:18.302Z,153.81
2023-11-04T06:24:18.332Z,149.55
2023-11-04T06:25:18.280Z,147.45
2023-11-04T06:26:18.268Z,147.84
2023-11-04T06:27:18.281Z,149.55
2023-11-04T06:28:18.266Z,147.84
2023-11-04T06:29:18.393Z,149.29
2023-11-04T06:30:18.247Z,155.81
2023-11-04T06:31:18.279Z,173.57
2023-11-04T06:32:18.199Z,190.09
2023-11-04T06:33:18.225Z,206.93
2023-11-04T06:34:18.327Z,224.10
2023-11-04T06:35:18.315Z,245.67
2023-11-04T06:36:18.164Z,283.53
2023-11-04T06:37:18.188Z,322.38
2023-11-04T06:38:18.152Z,363.67
2023-11-04T06:39:18.170Z,408.13
2023-11-04T06:40:18.131Z,441.51
2023-11-04T06:41:18.303Z,462.56
2023-11-04T06:42:18.123Z,471.69
2023-11-04T06:43:18.124Z,480.49
2023-11-04T06:44:18.129Z,494.70
2023-11-04T06:45:18.097Z,522.91
2023-11-04T06:46:18.082Z,573.06
2023-11-04T06:47:18.070Z,634.44
2023-11-04T06:48:18.143Z,647.95
2023-11-04T06:49:18.067Z,693.61
2023-11-04T06:50:18.079Z,747.02
2023-11-04T06:51:18.044Z,770.11
2023-11-04T06:52:18.031Z,819.57
2023-11-04T06:53:18.021Z,867.31
2023-11-04T06:54:18.005Z,912.18
2023-11-04T06:55:18.033Z,927.34
2023-11-04T06:56:17.998Z,944.33
2023-11-04T06:57:17.952Z,939.03
2023-11-04T06:58:17.961Z,920.96
2023-11-04T06:59:17.968Z,915.93
2023-11-04T07:00:17.934Z,933.80
2023-11-04T07:01:17.987Z,996.28
2023-11-04T07:02:17.911Z,1046.88
2023-11-04T07:03:18.007Z,1095.67
2023-11-04T07:04:17.920Z,1163.19
2023-11-04T07:05:17.914Z,1201.79
2023-11-04T07:06:17.889Z,1196.43
2023-11-04T07:07:17.917Z,1206.12
2023-11-04T07:08:17.843Z,1219.29
2023-11-04T07:09:17.847Z,1233.89
2023-11-04T07:10:17.829Z,1251.17
2023-11-04T07:11:17.813Z,1258.21
2023-11-04T07:12:17.831Z,1266.54
2023-11-04T07:13:17.903Z,1304.77
2023-11-04T07:14:17.790Z,1356.28
2023-11-04T07:15:17.758Z,1436.23
2023-11-04T07:16:17.770Z,1477.40
2023-11-04T07:17:17.740Z,1512.42
2023-11-04T07:18:17.817Z,1542.89
2023-11-04T07:19:17.850Z,1581.12
2023-11-04T07:20:17.720Z,1615.43
2023-11-04T07:21:17.740Z,1652.28
2023-11-04T07:22:17.706Z,1676.05
2023-11-04T07:23:17.702Z,1639.14
2023-11-04T07:24:17.665Z,593.90
2023-11-04T07:25:17.705Z,329.48
2023-11-04T07:26:17.660Z,275.92
2023-11-04T07:27:17.645Z,272.95
2023-11-04T07:28:17.634Z,290.53
2023-11-04T07:29:17.629Z,352.77
2023-11-04T07:30:17.635Z,451.03
2023-11-04T07:31:17.626Z,539.35
2023-11-04T07:32:17.605Z,563.88
2023-11-04T07:33:17.608Z,607.38
2023-11-04T07:34:17.734Z,655.56
2023-11-04T07:35:17.573Z,702.34
2023-11-04T07:36:17.582Z,723.60
2023-11-04T07:37:17.549Z,745.36
2023-11-04T07:38:17.528Z,746.93
2023-11-04T07:39:17.526Z,774.57
2023-11-04T07:40:17.512Z,771.45
2023-11-04T07:41:17.495Z,781.34
2023-11-04T07:42:17.502Z,811.63
2023-11-04T07:43:17.472Z,852.96
2023-11-04T07:44:17.476Z,841.18
2023-11-04T07:45:17.462Z,828.70
2023-11-04T07:46:17.460Z,874.67
2023-11-04T07:47:17.511Z,967.51
2023-11-04T07:48:17.548Z,1019.79
2023-11-04T07:49:17.468Z,1003.74
2023-11-04T07:50:17.409Z,1022.12
2023-11-04T07:51:17.403Z,1039.56
2023-11-04T07:52:17.386Z,1099.26
2023-11-04T07:53:17.387Z,1133.67
2023-11-04T07:54:17.385Z,1134.63
2023-11-04T07:55:17.387Z,1236.16
2023-11-04T07:56:17.337Z,1268.94
2023-11-04T07:57:17.308Z,1349.45
2023-11-04T07:58:17.338Z,1412.01
2023-11-04T07:59:17.324Z,1502.24
2023-11-04T08:00:17.331Z,1523.59
2023-11-04T08:01:17.312Z,1546.45
2023-11-04T08:02:17.272Z,1628.19
2023-11-04T08:03:17.347Z,1650.25
2023-11-04T08:04:17.290Z,1595.24
2023-11-04T08:05:17.351Z,1564.51
2023-11-04T08:06:17.256Z,1500.56
2023-11-04T08:07:17.229Z,1459.69
2023-11-04T08:08:17.190Z,1464.48
2023-11-04T08:09:17.227Z,1448.65
2023-11-04T08:10:17.213Z,1440.86
2023-11-04T08:11:17.190Z,1480.66
2023-11-04T08:12:17.220Z,1510.71
2023-11-04T08:13:17.209Z,1510.71
2023-11-04T08:14:17.165Z,1517.55
2023-11-04T08:15:17.250Z,1565.42
2023-11-04T08:16:17.150Z,1592.39
2023-11-04T08:17:17.132Z,1625.23
2023-11-04T08:18:17.154Z,1629.18
2023-11-04T08:19:17.241Z,1668.74
2023-11-04T08:20:17.109Z,1759.68
2023-11-04T08:21:17.217Z,1741.39
2023-11-04T08:22:17.205Z,1723.47
2023-11-04T08:23:17.076Z,1784.29
2023-11-04T08:24:17.052Z,1818.18
2023-11-04T08:25:17.074Z,1947.67
2023-11-04T08:26:17.028Z,1949.09
2023-11-04T08:27:17.015Z,1876.75
2023-11-04T08:28:17.034Z,1813.26
2023-11-04T08:29:17.003Z,1855.95
2023-11-04T08:30:17.036Z,1912.92
2023-11-04T08:31:16.975Z,1910.19
2023-11-04T08:32:16.959Z,1883.34
2023-11-04T08:33:17.069Z,1932.23
2023-11-04T08:34:17.024Z,2002.99
2023-11-04T08:35:16.932Z,2042.68
2023-11-04T08:36:16.952Z,2138.87
2023-11-04T08:37:16.911Z,2231.47
2023-11-04T08:38:16.913Z,2225.91
2023-11-04T08:39:16.881Z,2227.76
2023-11-04T08:40:16.895Z,2142.29
2023-11-04T08:41:16.923Z,2118.58
2023-11-04T08:42:16.863Z,2105.26
2023-11-04T08:43:16.843Z,2142.29
2023-11-04T08:44:16.836Z,2222.22
2023-11-04T08:45:16.849Z,2225.91
2023-11-04T08:46:16.810Z,2314.33
2023-11-04T08:47:16.865Z,2294.52
2023-11-04T08:48:16.913Z,2250.21
2023-11-04T08:49:16.882Z,2259.70
2023-11-04T08:50:16.825Z,2336.53
2023-11-04T08:51:16.771Z,2336.53
2023-11-04T08:52:16.782Z,2365.40
2023-11-04T08:53:16.768Z,2384.34
2023-11-04T08:54:16.737Z,2429.74
2023-11-04T08:55:16.719Z,2470.05
2023-11-04T08:56:16.727Z,2584.38
2023-11-04T08:57:16.713Z,2518.80
2023-11-04T08:58:16.722Z,2579.40
2023-11-04T08:59:16.858Z,2619.75
2023-11-04T09:00:16.863Z,2635.20
2023-11-04T09:01:16.650Z,2648.22
2023-11-04T09:02:16.656Z,2559.69
2023-11-04T09:03:16.641Z,2436.36
2023-11-04T09:04:23.987Z,2465.50
2023-11-04T09:05:19.790Z,2554.81
2023-11-04T09:06:16.742Z,2599.42
2023-11-04T09:07:16.629Z,2609.54
2023-11-04T09:08:16.586Z,2677.32
2023-11-04T09:09:16.576Z,2682.68
2023-11-04T09:10:16.646Z,2693.47
2023-11-04T09:11:16.558Z,2720.81
2023-11-04T09:12:20.608Z,2815.12
2023-11-04T09:13:16.525Z,2791.67
2023-11-04T09:14:16.552Z,2854.10
2023-11-04T09:15:16.546Z,2818.09
2023-11-04T09:16:16.499Z,2731.91
2023-11-04T09:17:16.480Z,2599.42
2023-11-04T09:18:19.816Z,2445.25
2023-11-04T09:19:16.587Z,2440.80
2023-11-04T09:20:16.493Z,2377.99
2023-11-04T09:21:16.468Z,2380.11
2023-11-04T09:22:16.534Z,2397.14
2023-11-04T09:23:16.420Z,2614.63
2023-11-04T09:24:16.430Z,2848.03
2023-11-04T09:25:16.460Z,3064.61
2023-11-04T09:26:16.421Z,3188.58
2023-11-04T09:27:16.404Z,3152.94
2023-11-04T09:28:16.402Z,3140.01
2023-11-04T09:29:16.359Z,3194.28
2023-11-04T09:30:16.383Z,3179.12
2023-11-04T09:31:16.356Z,3217.29
2023-11-04T09:32:16.331Z,3316.83
2023-11-04T09:33:16.411Z,3464.77
2023-11-04T09:34:16.449Z,3455.83
2023-11-04T09:35:16.313Z,3398.86
2023-11-04T09:36:16.307Z,3310.69
2023-11-04T09:37:16.294Z,3272.28
2023-11-04T09:38:16.268Z,3339.56
2023-11-04T09:39:16.248Z,3556.74
2023-11-04T09:40:16.292Z,3850.57
2023-11-04T09:41:16.237Z,4014.98
2023-11-04T09:42:16.309Z,4030.07
2023-11-04T09:43:16.249Z,4085.37
2023-11-04T09:44:16.202Z,4177.71
2023-11-04T09:45:16.225Z,4233.81
2023-11-04T09:46:16.179Z,3839.54
2023-11-04T09:47:16.189Z,3804.12
2023-11-04T09:48:16.212Z,3985.13
2023-11-04T09:49:16.251Z,4288.00
2023-11-04T09:50:16.147Z,4389.84
2023-11-04T09:51:16.144Z,4371.94
2023-11-04T09:52:16.124Z,4220.47
2023-11-04T09:53:16.120Z,3938.28
2023-11-04T09:54:16.101Z,3903.86
2023-11-04T09:55:16.093Z,4045.28
2023-11-04T09:56:16.116Z,4132.61
2023-11-04T09:57:16.085Z,4167.96
2023-11-04T09:58:16.117Z,4171.21
2023-11-04T09:59:16.055Z,4194.05
2023-11-04T10:00:16.037Z,3609.43
2023-11-04T10:01:16.035Z,3284.31
2023-11-04T10:02:16.008Z,3062.86
2023-11-04T10:03:16.055Z,2958.06
2023-11-04T10:04:19.366Z,2925.76
2023-11-04T10:05:16.050Z,2928.96
2023-11-04T10:06:16.015Z,3019.72
2023-11-04T10:07:15.966Z,3590.09
2023-11-04T10:08:15.949Z,3967.43
2023-11-04T10:09:15.943Z,4333.06
2023-11-04T10:10:22.537Z,4164.72
2023-11-04T10:11:15.951Z,3944.08
2023-11-04T10:12:15.902Z,3658.70
2023-11-04T10:13:15.915Z,3668.72
2023-11-04T10:14:15.892Z,3616.73
2023-11-04T10:15:15.926Z,3580.49
2023-11-04T10:16:15.992Z,3748.25
2023-11-04T10:17:15.848Z,3709.34
2023-11-04T10:18:15.840Z,3631.44
2023-11-04T10:19:15.880Z,3735.19
2023-11-04T10:20:15.828Z,3735.19
2023-11-04T10:21:15.845Z,3748.25
2023-11-04T10:22:15.850Z,3658.70
2023-11-04T10:23:15.780Z,4079.15
2023-11-04T10:24:15.774Z,4336.57
2023-11-04T10:25:15.778Z,4444.44
2023-11-04T10:26:15.873Z,4477.86
2023-11-04T10:27:15.781Z,4418.80
2023-11-04T10:28:15.764Z,4371.94
2023-11-04T10:29:15.730Z,4511.78
2023-11-04T10:30:15.726Z,4739.17
2023-11-04T10:31:15.717Z,4722.47
2023-11-04T10:32:15.702Z,4990.69
2023-11-04T10:33:15.767Z,5051.84
2023-11-04T10:34:15.724Z,5075.76
2023-11-04T10:35:15.670Z,5370.74
2023-11-04T10:36:15.799Z,5503.08
2023-11-04T10:37:16.031Z,5671.96
2023-11-04T10:38:15.665Z,6059.92
2023-11-04T10:39:15.658Z,6469.52
2023-11-04T10:40:15.727Z,6358.24
2023-11-04T10:41:15.595Z,5942.35
2023-11-04T10:42:15.609Z,5708.20
2023-11-04T10:43:15.591Z,5877.19
2023-11-04T10:44:15.570Z,6225.32
2023-11-04T10:45:15.618Z,6101.31
2023-11-04T10:46:15.629Z,6164.46
2023-11-04T10:47:15.537Z,6287.39
2023-11-04T10:48:15.564Z,5995.52
2023-11-04T10:49:15.532Z,6087.45
2023-11-04T10:50:15.529Z,5948.94
2023-11-04T10:51:15.558Z,5782.09
2023-11-04T10:52:15.549Z,6059.92
2023-11-04T10:53:15.482Z,5922.65
2023-11-04T10:54:15.472Z,5968.82
2023-11-04T10:55:15.511Z,6291.08
2023-11-04T10:56:15.455Z,6317.03
2023-11-04T10:57:15.502Z,6042.84
2023-11-04T10:58:15.450Z,5720.38
2023-11-04T10:59:15.431Z,5782.09
2023-11-04T11:00:15.783Z,5870.75
2023-11-04T11:01:15.390Z,5612.56
2023-11-04T11:02:15.403Z,5726.50
2023-11-04T11:03:15.416Z,5857.92
2023-11-04T11:04:15.509Z,5726.50
2023-11-04T11:05:15.373Z,5935.77
2023-11-04T11:06:15.351Z,6136.23
2023-11-04T11:07:15.372Z,6139.75
2023-11-04T11:08:15.359Z,6136.23
2023-11-04T11:09:15.305Z,6272.67
2023-11-04T11:10:15.368Z,6122.22
2023-11-04T11:11:15.560Z,6465.62
2023-11-04T11:12:15.300Z,6679.13
2023-11-04T11:13:15.279Z,6617.28
2023-11-04T11:14:15.295Z,6556.57
2023-11-04T11:15:15.271Z,6536.58
2023-11-04T11:16:15.295Z,6008.97
2023-11-04T11:17:15.241Z,5962.18
2023-11-04T11:18:15.294Z,6080.54
2023-11-04T11:19:15.308Z,6346.95
2023-11-04T11:20:15.235Z,6362.02
2023-11-04T11:21:15.185Z,5890.11
2023-11-04T11:22:15.207Z,5624.34
2023-11-04T11:23:15.175Z,5600.84
2023-11-04T11:24:15.180Z,5659.98
2023-11-04T11:25:15.205Z,5800.87
2023-11-04T11:26:15.186Z,6178.67
2023-11-04T11:27:15.116Z,6426.86
2023-11-04T11:28:15.148Z,6203.70
2023-11-04T11:29:15.102Z,6136.23
2023-11-04T11:30:15.092Z,5883.64
2023-11-04T11:31:15.334Z,5890.11
2023-11-04T11:32:15.117Z,5982.14
2023-11-04T11:33:15.093Z,6493.03
2023-11-04T11:34:15.175Z,6596.92
2023-11-04T11:35:15.035Z,6902.77
2023-11-04T11:36:16.193Z,6952.01
2023-11-04T11:37:15.063Z,7214.00
2023-11-04T11:38:15.070Z,7248.14
2023-11-04T11:39:14.982Z,7189.81
2023-11-04T11:40:15.310Z,7512.26
2023-11-04T11:41:15.136Z,7802.04
2023-11-04T11:42:14.969Z,7964.34
2023-11-04T11:43:15.046Z,8421.05
2023-11-04T11:44:14.995Z,8985.75
2023-11-04T11:45:14.940Z,9178.08
2023-11-04T11:46:15.137Z,8963.21
2023-11-04T11:47:14.908Z,9834.86
2023-11-04T11:48:15.070Z,10180.44
2023-11-04T11:49:14.940Z,10180.44
2023-11-04T11:50:14.884Z,10634.92
2023-11-04T11:51:14.867Z,11074.38
2023-11-04T11:52:14.925Z,11871.54
2023-11-04T11:53:14.852Z,12307.69
2023-11-04T11:54:14.824Z,12946.86
2023-11-04T11:55:14.920Z,12946.86
2023-11-04T11:56:14.827Z,12822.97
2023-11-04T11:57:14.807Z,12436.19
2023-11-04T11:58:14.812Z,12436.19
2023-11-04T11:59:14.782Z,12407.41
2023-11-04T12:00:14.830Z,12494.17
2023-11-04T12:01:14.852Z,12223.49
2023-11-04T12:02:14.771Z,12044.94
2023-11-04T12:03:14.758Z,11884.70
2023-11-04T12:04:14.810Z,12195.68
2023-11-04T12:05:14.761Z,12523.36
2023-11-04T12:06:14.766Z,12900.12
2023-11-04T12:07:14.790Z,12436.19
2023-11-04T12:08:14.690Z,12167.99
2023-11-04T12:09:14.864Z,12450.64
2023-11-04T12:10:14.807Z,12421.78
2023-11-04T12:11:14.829Z,12538.01
2023-11-04T12:12:14.688Z,12838.32
2023-11-04T12:13:15.309Z,12656.43
2023-11-04T12:14:14.680Z,12731.59
2023-11-04T12:15:14.854Z,12946.86
2023-11-04T12:16:14.752Z,12946.86
2023-11-04T12:17:14.681Z,12946.86
2023-11-04T12:18:14.812Z,12946.86